createdAt,value
2023-03-28T00:00:57.885Z,100038.00
2023-03-28T00:03:26.516Z,100035.68
2023-03-28T00:05:57.067Z,100035.07
2023-03-28T00:08:23.678Z,100033.95
2023-03-28T00:10:50.482Z,100028.73
2023-03-28T00:13:19.189Z,100029.47
2023-03-28T00:15:47.574Z,100029.35
2023-03-28T00:18:14.086Z,100025.20
2023-03-28T00:20:42.873Z,100021.98
2023-03-28T00:23:11.242Z,100021.87
2023-03-28T00:25:41.084Z,100017.02
2023-03-28T00:28:07.978Z,100011.00
2023-03-28T00:30:34.606Z,100012.45
2023-03-28T00:33:01.228Z,100014.30
2023-03-28T00:35:27.738Z,100021.86
2023-03-28T00:37:57.258Z,100023.71
2023-03-28T00:40:27.151Z,100026.47
2023-03-28T00:42:53.505Z,100024.21
2023-03-28T00:45:23.029Z,100021.41
2023-03-28T00:47:51.934Z,100023.05
2023-03-28T00:50:26.689Z,100016.61
2023-03-28T00:53:01.020Z,100016.52
2023-03-28T00:55:33.064Z,100013.21
2023-03-28T00:58:00.768Z,100015.74
2023-03-28T01:00:28.468Z,100015.08
2023-03-28T01:02:58.512Z,100017.16
2023-03-28T01:05:28.003Z,100017.19
2023-03-28T01:08:01.646Z,100017.07
2023-03-28T01:10:30.914Z,100009.86
2023-03-28T01:12:58.084Z,100004.63
2023-03-28T01:15:25.277Z,100000.30
2023-03-28T01:18:02.128Z,99998.86
2023-03-28T01:20:48.521Z,99995.52
2023-03-28T01:23:40.195Z,99991.79
2023-03-28T01:26:45.535Z,99993.84
2023-03-28T01:29:30.665Z,99993.40
2023-03-28T01:32:19.258Z,99983.86
2023-03-28T01:35:35.981Z,99981.98
2023-03-28T01:38:16.958Z,99984.96
2023-03-28T01:40:54.423Z,99982.46
2023-03-28T01:43:26.877Z,99980.45
2023-03-28T01:46:10.357Z,99987.84
2023-03-28T01:49:25.987Z,99988.05
2023-03-28T01:52:22.521Z,99986.29
2023-03-28T01:55:08.378Z,99980.38
2023-03-28T01:57:49.381Z,99984.55
2023-03-28T02:00:28.619Z,99984.50
2023-03-28T02:03:26.032Z,99983.15
2023-03-28T02:05:58.240Z,99975.52
2023-03-28T02:08:29.232Z,99981.73
2023-03-28T02:11:14.269Z,99982.23
2023-03-28T02:14:04.090Z,99981.66
2023-03-28T02:16:53.489Z,99978.92
2023-03-28T02:19:38.094Z,99975.15
2023-03-28T02:22:23.802Z,99977.28
2023-03-28T02:25:13.611Z,99977.05
2023-03-28T02:28:08.396Z,99972.23
2023-03-28T02:31:13.089Z,99974.11
2023-03-28T02:33:44.740Z,99965.75
2023-03-28T02:36:17.387Z,99965.25
2023-03-28T02:39:09.973Z,99964.77
2023-03-28T02:41:56.330Z,99966.24
2023-03-28T02:44:31.826Z,99967.30
2023-03-28T02:47:12.948Z,99969.04
2023-03-28T02:49:55.853Z,99966.75
2023-03-28T02:52:39.493Z,99956.35
2023-03-28T02:55:37.608Z,99955.60
2023-03-28T02:58:36.968Z,99954.48
2023-03-28T03:01:06.233Z,99954.34
2023-03-28T03:03:35.996Z,99945.33
2023-03-28T03:06:04.072Z,99940.90
2023-03-28T03:08:30.897Z,99938.21
2023-03-28T03:10:57.610Z,99937.09
2023-03-28T03:13:24.114Z,99939.45
2023-03-28T03:15:52.711Z,99937.81
2023-03-28T03:18:22.335Z,99937.80
2023-03-28T03:20:49.642Z,99941.31
2023-03-28T03:23:16.491Z,99940.30
2023-03-28T03:25:42.913Z,99937.77
2023-03-28T03:28:18.396Z,99931.33
2023-03-28T03:30:45.557Z,99929.79
2023-03-28T03:33:22.926Z,99931.30
2023-03-28T03:35:53.872Z,99930.41
2023-03-28T03:38:20.678Z,99925.60
2023-03-28T03:40:47.344Z,99925.42
2023-03-28T03:43:13.988Z,99925.95
2023-03-28T03:45:40.682Z,99928.31
2023-03-28T03:48:07.751Z,99929.20
2023-03-28T03:50:35.453Z,99928.64
2023-03-28T03:53:03.704Z,99928.56
2023-03-28T03:55:38.184Z,99929.52
2023-03-28T03:58:04.572Z,99922.72
2023-03-28T04:00:31.190Z,99918.45
2023-03-28T04:02:57.649Z,99918.56
2023-03-28T04:05:26.535Z,99915.08
2023-03-28T04:08:04.193Z,99912.42
2023-03-28T04:10:36.509Z,99908.45
2023-03-28T04:13:03.458Z,99908.34
2023-03-28T04:15:30.325Z,99902.46
2023-03-28T04:18:00.333Z,99904.58
2023-03-28T04:20:29.086Z,99905.98
2023-03-28T04:23:08.968Z,99905.80
2023-03-28T04:25:40.742Z,99902.88
2023-03-28T04:28:17.136Z,99900.39
2023-03-28T04:30:58.764Z,99898.73
2023-03-28T04:33:37.417Z,99899.17
2023-03-28T04:36:05.363Z,99900.09
2023-03-28T04:38:36.630Z,99901.70
2023-03-28T04:41:35.275Z,99899.92
2023-03-28T04:44:02.294Z,99895.52
2023-03-28T04:46:29.836Z,99900.04
2023-03-28T04:48:57.276Z,99898.27
2023-03-28T04:51:27.977Z,99902.17
2023-03-28T04:53:54.488Z,99904.88
2023-03-28T04:56:49.743Z,99908.35
2023-03-28T04:59:34.760Z,99903.34
2023-03-28T05:02:01.097Z,99903.11
2023-03-28T05:04:42.647Z,99901.94
2023-03-28T05:07:09.704Z,99901.06
2023-03-28T05:09:37.196Z,99898.52
2023-03-28T05:12:03.964Z,99898.16
2023-03-28T05:14:32.190Z,99897.37
2023-03-28T05:17:07.749Z,99892.83
2023-03-28T05:19:57.099Z,99899.11
2023-03-28T05:22:24.992Z,99898.96
2023-03-28T05:24:51.633Z,99901.46
2023-03-28T05:27:19.919Z,99904.48
2023-03-28T05:29:46.580Z,99902.99
2023-03-28T05:32:13.215Z,99902.61
2023-03-28T05:34:40.632Z,99903.54
2023-03-28T05:37:07.058Z,99904.95
2023-03-28T05:39:43.670Z,99909.25
2023-03-28T05:42:10.132Z,99910.66
2023-03-28T05:44:38.540Z,99915.68
2023-03-28T05:47:30.170Z,99917.45
2023-03-28T05:49:57.889Z,99917.74
2023-03-28T05:52:24.544Z,99919.33
2023-03-28T05:54:52.363Z,99914.92
2023-03-28T05:57:20.767Z,99914.41
2023-03-28T05:59:47.745Z,99912.91
2023-03-28T06:02:18.629Z,99914.81
2023-03-28T06:04:45.838Z,99915.27
2023-03-28T06:07:13.946Z,99915.58
2023-03-28T06:09:41.126Z,99916.73
2023-03-28T06:12:08.785Z,99916.80
2023-03-28T06:14:36.600Z,99921.59
2023-03-28T06:17:06.976Z,99922.65
2023-03-28T06:19:41.446Z,99921.69
2023-03-28T06:22:08.063Z,99923.85
2023-03-28T06:24:34.631Z,99924.41
2023-03-28T06:27:01.088Z,99926.19
2023-03-28T06:29:27.624Z,99927.77
2023-03-28T06:32:02.085Z,99932.29
2023-03-28T06:34:28.492Z,99931.94
2023-03-28T06:36:56.382Z,99934.95
2023-03-28T06:39:25.428Z,99932.69
2023-03-28T06:41:55.230Z,99937.06
2023-03-28T06:44:25.107Z,99940.20
2023-03-28T06:46:55.180Z,99943.13
2023-03-28T06:49:22.233Z,99943.40
2023-03-28T06:52:07.447Z,99942.52
2023-03-28T06:54:34.329Z,99942.11
2023-03-28T06:57:00.761Z,99942.85
2023-03-28T06:59:27.453Z,99944.33
2023-03-28T07:01:57.694Z,99951.33
2023-03-28T07:04:28.311Z,99953.02
2023-03-28T07:06:54.817Z,99956.48
2023-03-28T07:09:21.434Z,99960.77
2023-03-28T07:11:55.776Z,99961.90
2023-03-28T07:14:22.473Z,99965.94
2023-03-28T07:16:49.069Z,99966.02
2023-03-28T07:19:15.495Z,99968.17
2023-03-28T07:21:44.316Z,99971.45
2023-03-28T07:24:10.819Z,99968.37
2023-03-28T07:27:16.125Z,99973.00
2023-03-28T07:29:45.260Z,99975.04
2023-03-28T07:32:12.227Z,99974.48
2023-03-28T07:34:39.143Z,99977.41
2023-03-28T07:37:08.206Z,99978.51
2023-03-28T07:40:00.901Z,99981.95
2023-03-28T07:42:27.838Z,99977.88
2023-03-28T07:44:54.756Z,99973.30
2023-03-28T07:47:21.656Z,99982.48
2023-03-28T07:49:48.184Z,99982.29
2023-03-28T07:52:15.086Z,99985.52
2023-03-28T07:54:41.536Z,99988.41
2023-03-28T07:57:08.114Z,99990.45
2023-03-28T07:59:51.207Z,99993.20
2023-03-28T08:02:17.684Z,99995.14
2023-03-28T08:04:45.185Z,99997.81
2023-03-28T08:07:12.377Z,100002.29
2023-03-28T08:09:39.084Z,100005.35
2023-03-28T08:12:27.254Z,100006.13
2023-03-28T08:14:53.681Z,100005.39
2023-03-28T08:17:23.452Z,100010.48
2023-03-28T08:19:50.928Z,100011.52
2023-03-28T08:22:25.422Z,100017.45
2023-03-28T08:24:58.576Z,100018.63
2023-03-28T08:27:25.053Z,100020.67
2023-03-28T08:29:57.154Z,100020.09
2023-03-28T08:32:23.936Z,100022.20
2023-03-28T08:34:50.417Z,100018.55
2023-03-28T08:37:20.969Z,100021.70
2023-03-28T08:39:48.015Z,100021.58
2023-03-28T08:42:48.444Z,100019.44
2023-03-28T08:45:35.052Z,100018.19
2023-03-28T08:48:10.677Z,100025.50
2023-03-28T08:50:47.948Z,100034.38
2023-03-28T08:53:29.784Z,100032.52
2023-03-28T08:55:58.282Z,100033.69
2023-03-28T08:58:34.509Z,100033.05
2023-03-28T09:01:03.407Z,100038.72
2023-03-28T09:03:32.771Z,100042.46
2023-03-28T09:06:25.662Z,100049.84
2023-03-28T09:09:13.172Z,100049.17
2023-03-28T09:11:48.235Z,100055.56
2023-03-28T09:14:52.337Z,100062.13
2023-03-28T09:17:41.305Z,100074.52
2023-03-28T09:20:29.303Z,100085.23
2023-03-28T09:23:22.587Z,100104.05
2023-03-28T09:26:16.818Z,100112.80
2023-03-28T09:28:55.441Z,100105.80
2023-03-28T09:31:27.798Z,100111.08
2023-03-28T09:33:58.273Z,100111.58
2023-03-28T09:36:45.493Z,100117.34
2023-03-28T09:39:31.984Z,100119.04
2023-03-28T09:42:12.538Z,100125.69
2023-03-28T09:45:45.309Z,100131.17
2023-03-28T09:48:36.986Z,100138.58
2023-03-28T09:51:12.800Z,100144.58
2023-03-28T09:53:48.123Z,100145.98
2023-03-28T09:56:19.337Z,100148.36
2023-03-28T09:58:52.018Z,100153.52
2023-03-28T10:01:23.686Z,100160.92
2023-03-28T10:04:17.700Z,100170.75
2023-03-28T10:07:08.843Z,100173.83
2023-03-28T10:10:07.931Z,100180.66
2023-03-28T10:12:37.527Z,100185.75
2023-03-28T10:15:07.013Z,100191.30
2023-03-28T10:18:01.617Z,100194.37
2023-03-28T10:20:35.918Z,100198.45
2023-03-28T10:23:04.995Z,100205.30
2023-03-28T10:25:44.997Z,100214.70
2023-03-28T10:28:20.373Z,100223.93
2023-03-28T10:30:56.738Z,100227.41
2023-03-28T10:33:29.864Z,100233.80
2023-03-28T10:36:11.921Z,100237.73
2023-03-28T10:38:48.797Z,100240.10
2023-03-28T10:41:54.456Z,100246.36
2023-03-28T10:44:39.979Z,100245.34
2023-03-28T10:47:15.650Z,100254.13
2023-03-28T10:49:50.056Z,100252.44
2023-03-28T10:52:37.958Z,100260.60
2023-03-28T10:55:17.358Z,100269.77
2023-03-28T10:58:26.392Z,100275.66
2023-03-28T11:01:04.676Z,100279.05
2023-03-28T11:04:03.345Z,100279.55
2023-03-28T11:07:05.378Z,100286.82
2023-03-28T11:10:23.737Z,100292.70
2023-03-28T11:13:30.385Z,100292.34
2023-03-28T11:16:12.536Z,100293.38
2023-03-28T11:19:02.133Z,100296.52
2023-03-28T11:22:21.651Z,100299.55
2023-03-28T11:25:13.997Z,100300.21
2023-03-28T11:28:17.943Z,100299.92
2023-03-28T11:30:55.598Z,100298.17
2023-03-28T11:33:54.532Z,100296.42
2023-03-28T11:36:39.522Z,100306.57
2023-03-28T11:39:23.542Z,100313.91
2023-03-28T11:41:52.226Z,100314.33
2023-03-28T11:44:29.713Z,100316.49
2023-03-28T11:47:03.855Z,100321.06
2023-03-28T11:49:47.489Z,100325.16
2023-03-28T11:52:47.117Z,100331.36
2023-03-28T11:55:21.581Z,100334.81
2023-03-28T11:58:02.018Z,100334.25
2023-03-28T12:00:36.078Z,100340.97
2023-03-28T12:03:19.053Z,100335.61
2023-03-28T12:06:04.951Z,100352.35
2023-03-28T12:08:34.469Z,100345.70
2023-03-28T12:11:18.739Z,100344.91
2023-03-28T12:14:11.655Z,100355.52
2023-03-28T12:16:48.273Z,100351.95
2023-03-28T12:19:37.980Z,100354.27
2023-03-28T12:22:39.675Z,100355.35
2023-03-28T12:25:12.604Z,100357.10
2023-03-28T12:27:59.752Z,100354.95
2023-03-28T12:30:59.371Z,100354.34
2023-03-28T12:33:58.150Z,100358.14
2023-03-28T12:37:37.881Z,100362.05
2023-03-28T12:40:22.742Z,100360.66
2023-03-28T12:42:54.654Z,100369.32
2023-03-28T12:45:28.828Z,100374.55
2023-03-28T12:48:02.774Z,100377.09
2023-03-28T12:50:40.258Z,100378.76
2023-03-28T12:53:11.130Z,100384.77
2023-03-28T12:55:45.836Z,100382.41
2023-03-28T12:58:20.737Z,100378.04
2023-03-28T13:01:17.198Z,100373.46
2023-03-28T13:04:12.608Z,100379.35
2023-03-28T13:08:12.881Z,100377.01
2023-03-28T13:10:42.301Z,100390.84
2023-03-28T13:13:24.202Z,100388.58
2023-03-28T13:15:59.807Z,100405.92
2023-03-28T13:18:30.938Z,100406.45
2023-03-28T13:21:03.512Z,100409.91
2023-03-28T13:23:35.765Z,100416.57
2023-03-28T13:26:05.359Z,100419.69
2023-03-28T13:28:43.796Z,100419.80
2023-03-28T13:31:24.585Z,100435.14
2023-03-28T13:33:54.540Z,100437.80
2023-03-28T13:36:26.627Z,100432.27
2023-03-28T13:39:07.855Z,100440.52
2023-03-28T13:41:40.117Z,100436.84
2023-03-28T13:44:13.626Z,100437.41
2023-03-28T13:46:44.144Z,100439.35
2023-03-28T13:49:13.600Z,100438.86
2023-03-28T13:51:59.219Z,100443.49
2023-03-28T13:54:27.605Z,100440.63
2023-03-28T13:57:00.245Z,100436.42
2023-03-28T13:59:36.413Z,100451.79
2023-03-28T14:02:18.025Z,100452.60
2023-03-28T14:04:53.370Z,100461.94
2023-03-28T14:07:27.244Z,100466.36
2023-03-28T14:09:56.047Z,100468.19
2023-03-28T14:12:26.919Z,100472.58
2023-03-28T14:14:55.578Z,100470.14
2023-03-28T14:17:28.762Z,100467.23
2023-03-28T14:20:01.637Z,100473.11
2023-03-28T14:22:30.580Z,100475.45
2023-03-28T14:25:03.788Z,100472.40
2023-03-28T14:27:40.690Z,100471.14
2023-03-28T14:30:27.808Z,100473.30
2023-03-28T14:33:01.658Z,100471.75
2023-03-28T14:35:32.875Z,100473.69
2023-03-28T14:38:05.567Z,100474.98
2023-03-28T14:40:33.733Z,100480.34
2023-03-28T14:43:04.022Z,100483.25
2023-03-28T14:45:38.690Z,100477.48
2023-03-28T14:48:08.643Z,100482.84
2023-03-28T14:50:38.319Z,100479.91
2023-03-28T14:53:08.679Z,100489.17
2023-03-28T14:55:38.476Z,100492.36
2023-03-28T14:58:06.322Z,100498.13
2023-03-28T15:00:40.239Z,100499.32
2023-03-28T15:03:14.911Z,100503.73
2023-03-28T15:05:43.718Z,100503.58
2023-03-28T15:08:33.626Z,100513.88
2023-03-28T15:11:05.798Z,100517.60
2023-03-28T15:13:34.272Z,100524.67
2023-03-28T15:16:01.280Z,100534.61
2023-03-28T15:18:30.840Z,100536.45
2023-03-28T15:21:01.355Z,100537.96
2023-03-28T15:23:31.744Z,100542.94
2023-03-28T15:26:06.865Z,100554.23
2023-03-28T15:28:33.494Z,100573.44
2023-03-28T15:31:03.025Z,100577.10
2023-03-28T15:33:33.114Z,100577.60
2023-03-28T15:36:11.156Z,100583.39
2023-03-28T15:38:39.373Z,100582.34
2023-03-28T15:41:28.228Z,100586.06
2023-03-28T15:43:54.825Z,100582.54
2023-03-28T15:46:32.764Z,100584.40
2023-03-28T15:49:01.794Z,100581.58
2023-03-28T15:51:29.993Z,100587.58
2023-03-28T15:54:00.598Z,100593.98
2023-03-28T15:56:30.912Z,100592.60
2023-03-28T15:59:08.609Z,100592.35
2023-03-28T16:01:35.163Z,100599.71
2023-03-28T16:04:22.946Z,100604.22
2023-03-28T16:07:12.046Z,100605.61
2023-03-28T16:09:42.427Z,100609.74
2023-03-28T16:12:13.230Z,100615.40
2023-03-28T16:14:46.895Z,100618.30
2023-03-28T16:17:24.252Z,100626.52
2023-03-28T16:19:56.740Z,100629.27
2023-03-28T16:22:23.971Z,100628.38
2023-03-28T16:24:52.493Z,100632.46
2023-03-28T16:27:20.796Z,100637.13
2023-03-28T16:29:47.950Z,100636.31
2023-03-28T16:32:15.697Z,100638.48
2023-03-28T16:34:43.600Z,100642.66
2023-03-28T16:37:10.785Z,100646.72
2023-03-28T16:39:38.582Z,100653.42
2023-03-28T16:42:05.877Z,100653.77
2023-03-28T16:44:33.060Z,100654.59
2023-03-28T16:47:00.162Z,100665.80
2023-03-28T16:49:28.643Z,100671.51
2023-03-28T16:51:57.077Z,100674.38
2023-03-28T16:54:23.948Z,100684.27
2023-03-28T16:56:50.646Z,100689.09
2023-03-28T16:59:17.952Z,100694.38
2023-03-28T17:01:45.688Z,100694.51
2023-03-28T17:04:12.884Z,100691.45
2023-03-28T17:06:39.650Z,100689.50
2023-03-28T17:09:06.231Z,100696.61
2023-03-28T17:11:33.698Z,100699.27
2023-03-28T17:14:00.703Z,100700.30
2023-03-28T17:16:27.508Z,100704.23
2023-03-28T17:18:54.601Z,100708.48
2023-03-28T17:21:21.115Z,100708.92
2023-03-28T17:23:48.934Z,100713.94
2023-03-28T17:26:16.645Z,100719.16
2023-03-28T17:28:43.566Z,100727.30
2023-03-28T17:31:17.209Z,100732.44
2023-03-28T17:33:45.988Z,100739.50
2023-03-28T17:36:22.317Z,100742.69
2023-03-28T17:38:51.447Z,100745.80
2023-03-28T17:41:19.130Z,100748.27
2023-03-28T17:43:45.995Z,100749.70
2023-03-28T17:46:12.566Z,100753.11
2023-03-28T17:48:40.028Z,100757.88
2023-03-28T17:51:08.591Z,100759.67
2023-03-28T17:53:36.706Z,100762.80
2023-03-28T17:56:03.924Z,100762.31
2023-03-28T17:58:31.231Z,100766.18
2023-03-28T18:00:59.259Z,100767.37
2023-03-28T18:03:27.070Z,100769.92
2023-03-28T18:06:22.921Z,100776.03
2023-03-28T18:08:49.416Z,100779.81
2023-03-28T18:11:17.416Z,100782.52
2023-03-28T18:13:44.512Z,100785.43
2023-03-28T18:16:13.870Z,100792.02
2023-03-28T18:18:41.305Z,100793.68
2023-03-28T18:21:12.205Z,100793.07
2023-03-28T18:23:40.281Z,100799.13
2023-03-28T18:26:09.256Z,100797.41
2023-03-28T18:28:37.932Z,100797.30
2023-03-28T18:31:19.349Z,100793.66
2023-03-28T18:33:46.754Z,100795.86
2023-03-28T18:36:13.717Z,100796.45
2023-03-28T18:38:42.352Z,100798.39
2023-03-28T18:41:12.244Z,100797.92
2023-03-28T18:43:40.865Z,100801.63
2023-03-28T18:46:08.827Z,100805.02
2023-03-28T18:48:35.840Z,100807.56
2023-03-28T18:51:05.504Z,100811.58
2023-03-28T18:53:32.764Z,100811.08
2023-03-28T18:55:59.979Z,100814.00
2023-03-28T18:58:26.685Z,100816.80
2023-03-28T19:00:58.365Z,100817.05
2023-03-28T19:03:27.151Z,100816.75
2023-03-28T19:05:58.895Z,100815.61
2023-03-28T19:08:26.287Z,100807.98
2023-03-28T19:10:58.068Z,100811.17
2023-03-28T19:13:26.648Z,100813.02
2023-03-28T19:16:06.337Z,100811.16
2023-03-28T19:18:36.460Z,100813.89
2023-03-28T19:21:03.694Z,100814.04
2023-03-28T19:23:30.192Z,100812.80
2023-03-28T19:25:57.309Z,100815.61
2023-03-28T19:28:24.653Z,100814.02
2023-03-28T19:31:12.802Z,100814.95
2023-03-28T19:33:40.202Z,100812.70
2023-03-28T19:36:08.286Z,100820.27
2023-03-28T19:38:38.123Z,100820.39
2023-03-28T19:41:19.909Z,100820.67
2023-03-28T19:43:55.170Z,100824.09
2023-03-28T19:46:34.476Z,100822.51
2023-03-28T19:49:05.698Z,100824.30
2023-03-28T19:51:32.531Z,100824.31
2023-03-28T19:53:59.156Z,100827.73
2023-03-28T19:56:26.303Z,100825.57
2023-03-28T19:58:53.236Z,100827.13
2023-03-28T20:01:20.246Z,100826.59
2023-03-28T20:03:51.575Z,100832.58
2023-03-28T20:06:19.971Z,100827.61
2023-03-28T20:08:46.754Z,100832.98
2023-03-28T20:11:19.327Z,100833.39
2023-03-28T20:13:45.965Z,100832.81
2023-03-28T20:16:13.857Z,100830.79
2023-03-28T20:18:41.277Z,100829.91
2023-03-28T20:21:13.596Z,100833.25
2023-03-28T20:23:41.238Z,100832.13
2023-03-28T20:26:19.966Z,100829.17
2023-03-28T20:28:48.967Z,100836.38
2023-03-28T20:31:16.978Z,100835.87
2023-03-28T20:33:44.658Z,100836.58
2023-03-28T20:36:13.568Z,100834.13
2023-03-28T20:38:41.332Z,100834.52
2023-03-28T20:41:13.413Z,100832.33
2023-03-28T20:43:45.817Z,100829.84
2023-03-28T20:46:19.065Z,100826.42
2023-03-28T21:06:07.058Z,100829.61
2023-03-28T21:08:35.599Z,100829.67
2023-03-28T21:11:02.540Z,100837.70
2023-03-28T21:13:29.806Z,100833.51
2023-03-28T21:15:56.989Z,100839.05
2023-03-28T21:18:24.297Z,100839.59
2023-03-28T21:20:50.916Z,100843.44
2023-03-28T21:23:17.321Z,100849.63
2023-03-28T21:25:44.943Z,100851.67
2023-03-28T21:28:11.947Z,100857.61
2023-03-28T21:30:39.648Z,100856.44
2023-03-28T21:33:06.461Z,100856.27
2023-03-28T21:35:34.004Z,100857.58
2023-03-28T21:38:00.498Z,100860.41
2023-03-28T21:40:27.002Z,100856.28
2023-03-28T21:42:53.355Z,100859.02
2023-03-28T21:45:19.692Z,100857.77
2023-03-28T21:47:46.209Z,100858.40
2023-03-28T21:50:15.024Z,100861.13
2023-03-28T21:52:41.912Z,100861.17
2023-03-28T21:55:08.889Z,100862.59
2023-03-28T21:57:36.042Z,100865.56
2023-03-28T22:00:13.934Z,100864.11
2023-03-28T22:02:41.613Z,100862.23
2023-03-28T22:05:15.632Z,100861.93
2023-03-28T22:07:49.766Z,100860.20
2023-03-28T22:10:17.013Z,100859.71
2023-03-28T22:12:44.868Z,100859.84
2023-03-28T22:15:13.140Z,100858.27
2023-03-28T22:17:41.405Z,100861.48
2023-03-28T22:20:12.328Z,100857.21
2023-03-28T22:22:41.868Z,100854.70
2023-03-28T22:25:10.293Z,100856.39
2023-03-28T22:27:38.041Z,100855.34
2023-03-28T22:30:07.940Z,100861.13
2023-03-28T22:32:36.144Z,100860.44
2023-03-28T22:35:03.099Z,100862.70
2023-03-28T22:37:29.557Z,100860.88
2023-03-28T22:39:56.007Z,100861.26
2023-03-28T22:42:23.633Z,100858.48
2023-03-28T22:44:50.044Z,100861.66
2023-03-28T22:47:17.340Z,100864.25
2023-03-28T22:49:44.566Z,100868.61
2023-03-28T22:52:12.307Z,100867.27
2023-03-28T22:54:38.776Z,100864.63
2023-03-28T22:57:05.540Z,100868.46
2023-03-28T22:59:33.042Z,100865.83
2023-03-28T23:01:59.381Z,100862.85
2023-03-28T23:04:26.550Z,100865.44
2023-03-28T23:06:53.085Z,100862.73
2023-03-28T23:09:19.864Z,100858.79
2023-03-28T23:11:46.254Z,100860.54
2023-03-28T23:14:12.842Z,100862.95
2023-03-28T23:16:39.375Z,100860.50
2023-03-28T23:19:06.457Z,100863.06
2023-03-28T23:21:36.091Z,100863.90
2023-03-28T23:24:03.598Z,100864.38
2023-03-28T23:26:31.126Z,100866.95
2023-03-28T23:28:57.524Z,100866.42
2023-03-28T23:31:24.085Z,100869.58
2023-03-28T23:33:50.616Z,100864.77
2023-03-28T23:36:20.393Z,100866.91
2023-03-28T23:38:47.467Z,100869.21
2023-03-28T23:41:13.867Z,100868.77
2023-03-28T23:43:40.588Z,100870.50
2023-03-28T23:46:08.276Z,100870.59
2023-03-28T23:48:35.546Z,100870.11
2023-03-28T23:51:02.269Z,100868.81
2023-03-28T23:53:29.028Z,100867.32
2023-03-28T23:55:55.383Z,100870.88
2023-03-28T23:58:21.935Z,100871.06
